sensor_id;sensor_type;location;lat;lon;timestamp;temperature;humidity
13561;DHT22;6852;51.686;5.314;2022-10-12T00:02:18;9.30;99.90
13561;DHT22;6852;51.686;5.314;2022-10-12T00:04:45;9.30;99.90
13561;DHT22;6852;51.686;5.314;2022-10-12T00:07:12;9.30;1.00
13561;DHT22;6852;51.686;5.314;2022-10-12T00:09:39;9.20;1.00
13561;DHT22;6852;51.686;5.314;2022-10-12T00:12:06;9.20;1.00
13561;DHT22;6852;51.686;5.314;2022-10-12T00:14:37;9.20;1.00
13561;DHT22;6852;51.686;5.314;2022-10-12T00:17:04;9.20;1.00
13561;DHT22;6852;51.686;5.314;2022-10-12T00:19:31;9.20;99.90
13561;DHT22;6852;51.686;5.314;2022-10-12T00:21:57;9.10;1.00
13561;DHT22;6852;51.686;5.314;2022-10-12T00:24:24;9.10;1.00
13561;DHT22;6852;51.686;5.314;2022-10-12T00:26:51;9.20;1.00
13561;DHT22;6852;51.686;5.314;2022-10-12T00:29:18;9.20;1.00
13561;DHT22;6852;51.686;5.314;2022-10-12T00:31:45;9.20;1.00
13561;DHT22;6852;51.686;5.314;2022-10-12T00:34:12;9.10;1.00
13561;DHT22;6852;51.686;5.314;2022-10-12T00:36:38;9.20;1.00
13561;DHT22;6852;51.686;5.314;2022-10-12T00:39:08;9.20;1.00
13561;DHT22;6852;51.686;5.314;2022-10-12T00:41:39;9.20;1.00
13561;DHT22;6852;51.686;5.314;2022-10-12T00:46:59;9.20;1.00
13561;DHT22;6852;51.686;5.314;2022-10-12T00:49:26;9.30;1.00
13561;DHT22;6852;51.686;5.314;2022-10-12T00:51:59;9.10;1.00
13561;DHT22;6852;51.686;5.314;2022-10-12T00:54:30;9.10;1.00
13561;DHT22;6852;51.686;5.314;2022-10-12T00:56:58;9.10;1.00
13561;DHT22;6852;51.686;5.314;2022-10-12T00:59:30;9.10;99.90
13561;DHT22;6852;51.686;5.314;2022-10-12T01:01:59;9.10;99.90
13561;DHT22;6852;51.686;5.314;2022-10-12T01:04:26;9.10;99.90
13561;DHT22;6852;51.686;5.314;2022-10-12T01:06:53;9.10;1.00
13561;DHT22;6852;51.686;5.314;2022-10-12T01:09:20;9.10;99.90
13561;DHT22;6852;51.686;5.314;2022-10-12T01:11:47;9.10;99.90
13561;DHT22;6852;51.686;5.314;2022-10-12T01:14:14;9.00;99.90
13561;DHT22;6852;51.686;5.314;2022-10-12T01:22:08;9.00;1.00
13561;DHT22;6852;51.686;5.314;2022-10-12T01:27:35;9.10;1.00
13561;DHT22;6852;51.686;5.314;2022-10-12T01:35:45;9.00;99.90
13561;DHT22;6852;51.686;5.314;2022-10-12T01:39:14;9.00;99.90
13561;DHT22;6852;51.686;5.314;2022-10-12T01:41:35;9.00;99.90
13561;DHT22;6852;51.686;5.314;2022-10-12T01:44:04;9.00;93.70
13561;DHT22;6852;51.686;5.314;2022-10-12T01:48:59;9.10;92.50
13561;DHT22;6852;51.686;5.314;2022-10-12T02:00:13;9.10;1.00
13561;DHT22;6852;51.686;5.314;2022-10-12T02:05:47;9.10;99.90
13561;DHT22;6852;51.686;5.314;2022-10-12T02:08:36;9.00;1.00
13561;DHT22;6852;51.686;5.314;2022-10-12T02:11:09;9.00;1.00
13561;DHT22;6852;51.686;5.314;2022-10-12T02:16:23;9.00;1.00
13561;DHT22;6852;51.686;5.314;2022-10-12T02:18:53;9.00;1.00
13561;DHT22;6852;51.686;5.314;2022-10-12T02:21:26;9.00;1.00
13561;DHT22;6852;51.686;5.314;2022-10-12T02:23:55;8.90;1.00
13561;DHT22;6852;51.686;5.314;2022-10-12T02:26:24;8.90;1.00
13561;DHT22;6852;51.686;5.314;2022-10-12T02:28:51;8.80;1.00
13561;DHT22;6852;51.686;5.314;2022-10-12T02:31:34;8.80;1.00
13561;DHT22;6852;51.686;5.314;2022-10-12T02:34:17;8.80;1.00
13561;DHT22;6852;51.686;5.314;2022-10-12T02:36:56;8.80;1.00
13561;DHT22;6852;51.686;5.314;2022-10-12T02:39:32;8.80;1.00
13561;DHT22;6852;51.686;5.314;2022-10-12T02:42:04;8.80;1.00
13561;DHT22;6852;51.686;5.314;2022-10-12T02:44:37;8.80;1.00
13561;DHT22;6852;51.686;5.314;2022-10-12T02:47:07;8.80;1.00
13561;DHT22;6852;51.686;5.314;2022-10-12T02:49:35;8.80;99.90
13561;DHT22;6852;51.686;5.314;2022-10-12T02:52:04;8.90;1.00
13561;DHT22;6852;51.686;5.314;2022-10-12T02:54:32;8.80;1.00
13561;DHT22;6852;51.686;5.314;2022-10-12T02:56:59;8.90;1.00
13561;DHT22;6852;51.686;5.314;2022-10-12T02:59:26;8.80;1.00
13561;DHT22;6852;51.686;5.314;2022-10-12T03:01:52;8.80;1.00
13561;DHT22;6852;51.686;5.314;2022-10-12T03:04:19;8.80;1.00
13561;DHT22;6852;51.686;5.314;2022-10-12T03:06:46;8.80;1.00
13561;DHT22;6852;51.686;5.314;2022-10-12T03:09:13;8.80;1.00
13561;DHT22;6852;51.686;5.314;2022-10-12T03:11:40;8.80;1.00
13561;DHT22;6852;51.686;5.314;2022-10-12T03:14:13;8.70;1.00
13561;DHT22;6852;51.686;5.314;2022-10-12T03:16:43;8.70;1.00
13561;DHT22;6852;51.686;5.314;2022-10-12T03:19:12;8.60;1.00
13561;DHT22;6852;51.686;5.314;2022-10-12T03:21:39;8.60;1.00
13561;DHT22;6852;51.686;5.314;2022-10-12T03:24:06;8.70;58.40
13561;DHT22;6852;51.686;5.314;2022-10-12T03:26:33;8.60;1.00
13561;DHT22;6852;51.686;5.314;2022-10-12T03:29:00;8.60;1.00
13561;DHT22;6852;51.686;5.314;2022-10-12T03:31:27;8.50;1.00
13561;DHT22;6852;51.686;5.314;2022-10-12T03:33:54;8.50;1.00
13561;DHT22;6852;51.686;5.314;2022-10-12T03:36:21;8.50;1.00
13561;DHT22;6852;51.686;5.314;2022-10-12T03:38:48;8.50;1.00
13561;DHT22;6852;51.686;5.314;2022-10-12T03:41:15;8.50;1.00
13561;DHT22;6852;51.686;5.314;2022-10-12T03:43:42;8.50;1.00
13561;DHT22;6852;51.686;5.314;2022-10-12T03:46:08;8.50;1.00
13561;DHT22;6852;51.686;5.314;2022-10-12T03:48:35;8.50;1.00
13561;DHT22;6852;51.686;5.314;2022-10-12T03:51:02;8.40;1.00
13561;DHT22;6852;51.686;5.314;2022-10-12T03:53:29;8.40;99.90
13561;DHT22;6852;51.686;5.314;2022-10-12T03:55:57;8.40;1.00
13561;DHT22;6852;51.686;5.314;2022-10-12T03:58:23;8.40;1.00
13561;DHT22;6852;51.686;5.314;2022-10-12T04:00:54;8.30;99.90
13561;DHT22;6852;51.686;5.314;2022-10-12T04:03:21;8.40;1.00
13561;DHT22;6852;51.686;5.314;2022-10-12T04:05:55;8.40;99.90
13561;DHT22;6852;51.686;5.314;2022-10-12T04:08:23;8.40;99.90
13561;DHT22;6852;51.686;5.314;2022-10-12T04:10:50;8.40;93.90
13561;DHT22;6852;51.686;5.314;2022-10-12T04:13:18;8.30;32.00
13561;DHT22;6852;51.686;5.314;2022-10-12T04:15:45;8.30;99.90
13561;DHT22;6852;51.686;5.314;2022-10-12T04:18:12;8.30;92.90
13561;DHT22;6852;51.686;5.314;2022-10-12T04:20:38;8.30;99.90
13561;DHT22;6852;51.686;5.314;2022-10-12T04:23:05;8.30;97.30
13561;DHT22;6852;51.686;5.314;2022-10-12T04:25:32;8.30;25.30
13561;DHT22;6852;51.686;5.314;2022-10-12T04:27:59;8.30;2.40
13561;DHT22;6852;51.686;5.314;2022-10-12T04:30:26;8.30;99.90
13561;DHT22;6852;51.686;5.314;2022-10-12T04:32:54;8.20;99.90
13561;DHT22;6852;51.686;5.314;2022-10-12T04:35:21;8.30;99.90
13561;DHT22;6852;51.686;5.314;2022-10-12T04:37:47;8.30;99.90
13561;DHT22;6852;51.686;5.314;2022-10-12T04:40:14;8.20;99.90
13561;DHT22;6852;51.686;5.314;2022-10-12T04:42:41;8.20;99.90
13561;DHT22;6852;51.686;5.314;2022-10-12T04:45:08;8.30;1.00
13561;DHT22;6852;51.686;5.314;2022-10-12T04:47:35;8.20;99.90
13561;DHT22;6852;51.686;5.314;2022-10-12T04:50:04;8.30;67.00
13561;DHT22;6852;51.686;5.314;2022-10-12T04:52:31;8.20;99.90
13561;DHT22;6852;51.686;5.314;2022-10-12T04:54:58;8.20;99.90
13561;DHT22;6852;51.686;5.314;2022-10-12T04:57:24;8.20;1.00
13561;DHT22;6852;51.686;5.314;2022-10-12T04:59:51;8.20;1.00
13561;DHT22;6852;51.686;5.314;2022-10-12T05:02:18;8.20;1.00
13561;DHT22;6852;51.686;5.314;2022-10-12T05:04:45;8.20;1.00
13561;DHT22;6852;51.686;5.314;2022-10-12T05:07:12;8.20;1.00
13561;DHT22;6852;51.686;5.314;2022-10-12T05:09:39;8.20;99.90
13561;DHT22;6852;51.686;5.314;2022-10-12T05:12:06;8.20;99.90
13561;DHT22;6852;51.686;5.314;2022-10-12T05:14:32;8.20;1.00
13561;DHT22;6852;51.686;5.314;2022-10-12T05:17:02;8.10;99.90
13561;DHT22;6852;51.686;5.314;2022-10-12T05:19:28;8.10;99.90
13561;DHT22;6852;51.686;5.314;2022-10-12T05:21:57;8.10;99.90
13561;DHT22;6852;51.686;5.314;2022-10-12T05:24:24;8.10;99.90
13561;DHT22;6852;51.686;5.314;2022-10-12T05:26:51;8.10;99.90
13561;DHT22;6852;51.686;5.314;2022-10-12T05:29:17;8.10;99.90
13561;DHT22;6852;51.686;5.314;2022-10-12T05:31:44;8.10;99.90
13561;DHT22;6852;51.686;5.314;2022-10-12T05:34:11;8.00;99.90
13561;DHT22;6852;51.686;5.314;2022-10-12T05:36:38;8.00;99.90
13561;DHT22;6852;51.686;5.314;2022-10-12T05:39:05;8.00;99.90
13561;DHT22;6852;51.686;5.314;2022-10-12T05:41:32;7.90;1.00
13561;DHT22;6852;51.686;5.314;2022-10-12T05:43:59;8.00;1.00
13561;DHT22;6852;51.686;5.314;2022-10-12T05:46:25;8.00;1.00
13561;DHT22;6852;51.686;5.314;2022-10-12T05:48:52;7.90;1.00
13561;DHT22;6852;51.686;5.314;2022-10-12T05:51:19;7.90;1.00
13561;DHT22;6852;51.686;5.314;2022-10-12T05:53:48;7.90;1.00
13561;DHT22;6852;51.686;5.314;2022-10-12T05:56:15;8.00;1.00
13561;DHT22;6852;51.686;5.314;2022-10-12T05:58:42;7.90;1.00
13561;DHT22;6852;51.686;5.314;2022-10-12T06:01:11;8.00;1.00
13561;DHT22;6852;51.686;5.314;2022-10-12T06:03:39;7.90;1.00
13561;DHT22;6852;51.686;5.314;2022-10-12T06:06:06;7.90;1.00
13561;DHT22;6852;51.686;5.314;2022-10-12T06:08:33;8.00;1.00
13561;DHT22;6852;51.686;5.314;2022-10-12T06:11:00;7.90;1.00
13561;DHT22;6852;51.686;5.314;2022-10-12T06:13:27;8.00;1.00
13561;DHT22;6852;51.686;5.314;2022-10-12T06:15:54;8.00;1.00
13561;DHT22;6852;51.686;5.314;2022-10-12T06:18:21;8.00;1.00
13561;DHT22;6852;51.686;5.314;2022-10-12T06:20:50;8.10;1.00
13561;DHT22;6852;51.686;5.314;2022-10-12T06:23:37;8.10;1.00
13561;DHT22;6852;51.686;5.314;2022-10-12T06:26:04;8.10;1.00
13561;DHT22;6852;51.686;5.314;2022-10-12T06:28:31;8.00;46.10
13561;DHT22;6852;51.686;5.314;2022-10-12T06:30:59;8.10;99.90
13561;DHT22;6852;51.686;5.314;2022-10-12T06:33:26;8.10;1.00
13561;DHT22;6852;51.686;5.314;2022-10-12T06:35:54;8.20;1.00
13561;DHT22;6852;51.686;5.314;2022-10-12T06:38:21;8.20;99.90
13561;DHT22;6852;51.686;5.314;2022-10-12T06:40:48;8.20;1.00
13561;DHT22;6852;51.686;5.314;2022-10-12T06:43:15;8.30;1.00
13561;DHT22;6852;51.686;5.314;2022-10-12T06:45:42;8.30;1.00
13561;DHT22;6852;51.686;5.314;2022-10-12T06:48:09;8.30;1.00
13561;DHT22;6852;51.686;5.314;2022-10-12T06:50:41;8.40;99.90
13561;DHT22;6852;51.686;5.314;2022-10-12T06:53:08;8.40;1.00
13561;DHT22;6852;51.686;5.314;2022-10-12T06:55:38;8.40;1.00
13561;DHT22;6852;51.686;5.314;2022-10-12T06:58:05;8.40;1.00
13561;DHT22;6852;51.686;5.314;2022-10-12T07:00:33;8.40;1.00
13561;DHT22;6852;51.686;5.314;2022-10-12T07:03:00;8.40;1.00
13561;DHT22;6852;51.686;5.314;2022-10-12T07:05:27;8.50;1.00
13561;DHT22;6852;51.686;5.314;2022-10-12T07:07:54;8.60;1.00
13561;DHT22;6852;51.686;5.314;2022-10-12T07:10:20;8.50;1.00
13561;DHT22;6852;51.686;5.314;2022-10-12T07:12:47;8.60;1.00
13561;DHT22;6852;51.686;5.314;2022-10-12T07:15:14;8.60;1.00
13561;DHT22;6852;51.686;5.314;2022-10-12T07:17:41;8.60;99.90
13561;DHT22;6852;51.686;5.314;2022-10-12T07:20:08;8.50;99.90
13561;DHT22;6852;51.686;5.314;2022-10-12T07:22:34;8.50;99.90
13561;DHT22;6852;51.686;5.314;2022-10-12T07:25:02;8.60;1.00
13561;DHT22;6852;51.686;5.314;2022-10-12T07:27:29;8.60;1.00
13561;DHT22;6852;51.686;5.314;2022-10-12T07:29:55;8.70;99.90
13561;DHT22;6852;51.686;5.314;2022-10-12T07:32:22;8.70;91.50
13561;DHT22;6852;51.686;5.314;2022-10-12T07:34:49;8.70;81.70
13561;DHT22;6852;51.686;5.314;2022-10-12T07:37:16;8.80;99.90
13561;DHT22;6852;51.686;5.314;2022-10-12T07:39:43;8.70;1.00
13561;DHT22;6852;51.686;5.314;2022-10-12T07:42:10;8.80;1.00
13561;DHT22;6852;51.686;5.314;2022-10-12T07:44:43;8.60;1.00
13561;DHT22;6852;51.686;5.314;2022-10-12T07:47:10;8.60;1.00
13561;DHT22;6852;51.686;5.314;2022-10-12T07:49:37;8.80;99.90
13561;DHT22;6852;51.686;5.314;2022-10-12T07:52:04;9.00;1.00
13561;DHT22;6852;51.686;5.314;2022-10-12T07:54:30;9.20;1.00
13561;DHT22;6852;51.686;5.314;2022-10-12T07:56:59;9.50;99.90
13561;DHT22;6852;51.686;5.314;2022-10-12T07:59:26;9.60;99.90
13561;DHT22;6852;51.686;5.314;2022-10-12T08:01:53;9.70;1.00
13561;DHT22;6852;51.686;5.314;2022-10-12T08:04:20;9.70;99.90
13561;DHT22;6852;51.686;5.314;2022-10-12T08:06:47;9.60;99.90
13561;DHT22;6852;51.686;5.314;2022-10-12T08:09:13;9.70;1.00
13561;DHT22;6852;51.686;5.314;2022-10-12T08:11:41;10.00;1.00
13561;DHT22;6852;51.686;5.314;2022-10-12T08:14:15;10.30;99.90
13561;DHT22;6852;51.686;5.314;2022-10-12T08:16:43;10.60;1.00
13561;DHT22;6852;51.686;5.314;2022-10-12T08:19:10;10.90;1.00
13561;DHT22;6852;51.686;5.314;2022-10-12T08:21:37;11.40;1.00
13561;DHT22;6852;51.686;5.314;2022-10-12T08:24:04;11.90;1.00
13561;DHT22;6852;51.686;5.314;2022-10-12T08:26:31;12.10;1.00
13561;DHT22;6852;51.686;5.314;2022-10-12T08:29:01;12.60;1.00
13561;DHT22;6852;51.686;5.314;2022-10-12T08:31:28;12.80;99.90
13561;DHT22;6852;51.686;5.314;2022-10-12T08:33:56;13.10;90.80
13561;DHT22;6852;51.686;5.314;2022-10-12T08:36:23;13.10;1.00
13561;DHT22;6852;51.686;5.314;2022-10-12T08:38:51;13.50;1.00
13561;DHT22;6852;51.686;5.314;2022-10-12T08:44:48;13.90;1.00
13561;DHT22;6852;51.686;5.314;2022-10-12T08:49:56;14.40;1.00
13561;DHT22;6852;51.686;5.314;2022-10-12T08:52:38;14.50;1.00
13561;DHT22;6852;51.686;5.314;2022-10-12T08:55:41;14.60;1.00
13561;DHT22;6852;51.686;5.314;2022-10-12T08:58:34;14.00;1.00
13561;DHT22;6852;51.686;5.314;2022-10-12T09:04:16;14.20;1.00
13561;DHT22;6852;51.686;5.314;2022-10-12T09:07:03;14.30;1.00
13561;DHT22;6852;51.686;5.314;2022-10-12T09:12:47;13.40;1.00
13561;DHT22;6852;51.686;5.314;2022-10-12T09:15:21;13.60;1.00
13561;DHT22;6852;51.686;5.314;2022-10-12T09:17:55;13.80;1.00
13561;DHT22;6852;51.686;5.314;2022-10-12T09:20:37;13.20;1.00
13561;DHT22;6852;51.686;5.314;2022-10-12T09:23:27;13.60;99.90
13561;DHT22;6852;51.686;5.314;2022-10-12T09:26:05;13.80;1.00
13561;DHT22;6852;51.686;5.314;2022-10-12T09:28:42;13.70;99.90
13561;DHT22;6852;51.686;5.314;2022-10-12T09:31:14;13.70;99.90
13561;DHT22;6852;51.686;5.314;2022-10-12T09:33:52;13.70;99.90
13561;DHT22;6852;51.686;5.314;2022-10-12T09:36:22;13.70;49.20
13561;DHT22;6852;51.686;5.314;2022-10-12T09:38:50;13.40;1.00
13561;DHT22;6852;51.686;5.314;2022-10-12T09:41:23;13.60;1.00
13561;DHT22;6852;51.686;5.314;2022-10-12T09:43:54;13.80;1.00
13561;DHT22;6852;51.686;5.314;2022-10-12T09:46:48;13.80;1.00
13561;DHT22;6852;51.686;5.314;2022-10-12T09:49:13;14.00;1.00
13561;DHT22;6852;51.686;5.314;2022-10-12T09:51:40;14.00;1.00
13561;DHT22;6852;51.686;5.314;2022-10-12T09:54:18;13.90;1.00
13561;DHT22;6852;51.686;5.314;2022-10-12T09:56:48;14.20;1.00
13561;DHT22;6852;51.686;5.314;2022-10-12T10:04:42;14.40;1.00
13561;DHT22;6852;51.686;5.314;2022-10-12T10:10:23;14.40;1.00
13561;DHT22;6852;51.686;5.314;2022-10-12T10:12:59;14.40;1.00
13561;DHT22;6852;51.686;5.314;2022-10-12T10:15:34;14.30;1.00
13561;DHT22;6852;51.686;5.314;2022-10-12T10:18:26;14.30;1.00
13561;DHT22;6852;51.686;5.314;2022-10-12T10:20:50;13.90;92.20
13561;DHT22;6852;51.686;5.314;2022-10-12T10:23:26;13.90;1.00
13561;DHT22;6852;51.686;5.314;2022-10-12T10:26:06;14.00;27.50
13561;DHT22;6852;51.686;5.314;2022-10-12T10:28:39;14.10;1.00
13561;DHT22;6852;51.686;5.314;2022-10-12T10:33:40;14.40;1.00
13561;DHT22;6852;51.686;5.314;2022-10-12T10:36:21;14.40;1.00
13561;DHT22;6852;51.686;5.314;2022-10-12T10:39:02;14.50;1.00
13561;DHT22;6852;51.686;5.314;2022-10-12T10:41:41;14.70;1.00
13561;DHT22;6852;51.686;5.314;2022-10-12T10:44:30;14.50;1.00
13561;DHT22;6852;51.686;5.314;2022-10-12T10:47:16;14.70;1.00
13561;DHT22;6852;51.686;5.314;2022-10-12T10:49:47;14.80;1.00
13561;DHT22;6852;51.686;5.314;2022-10-12T10:55:20;15.00;1.00
13561;DHT22;6852;51.686;5.314;2022-10-12T10:58:02;15.10;1.00
13561;DHT22;6852;51.686;5.314;2022-10-12T11:00:33;15.10;1.00
13561;DHT22;6852;51.686;5.314;2022-10-12T11:03:19;15.10;1.00
13561;DHT22;6852;51.686;5.314;2022-10-12T11:05:52;15.10;1.00
13561;DHT22;6852;51.686;5.314;2022-10-12T11:08:26;15.30;1.00
13561;DHT22;6852;51.686;5.314;2022-10-12T11:11:12;15.30;1.00
13561;DHT22;6852;51.686;5.314;2022-10-12T11:13:44;15.30;1.00
13561;DHT22;6852;51.686;5.314;2022-10-12T11:19:04;15.30;1.00
13561;DHT22;6852;51.686;5.314;2022-10-12T11:21:39;15.40;99.90
13561;DHT22;6852;51.686;5.314;2022-10-12T11:24:18;15.50;99.90
13561;DHT22;6852;51.686;5.314;2022-10-12T11:27:11;15.80;1.00
13561;DHT22;6852;51.686;5.314;2022-10-12T11:29:40;15.80;99.90
13561;DHT22;6852;51.686;5.314;2022-10-12T11:35:04;15.70;99.90
13561;DHT22;6852;51.686;5.314;2022-10-12T11:37:32;15.80;99.90
13561;DHT22;6852;51.686;5.314;2022-10-12T11:40:02;15.70;99.90
13561;DHT22;6852;51.686;5.314;2022-10-12T11:42:33;15.60;99.90
13561;DHT22;6852;51.686;5.314;2022-10-12T11:45:38;15.60;99.90
13561;DHT22;6852;51.686;5.314;2022-10-12T11:48:12;15.80;99.90
13561;DHT22;6852;51.686;5.314;2022-10-12T11:50:42;16.20;99.90
13561;DHT22;6852;51.686;5.314;2022-10-12T11:55:54;16.60;99.90
13561;DHT22;6852;51.686;5.314;2022-10-12T11:58:28;16.40;99.90
13561;DHT22;6852;51.686;5.314;2022-10-12T12:04:56;16.30;99.90
13561;DHT22;6852;51.686;5.314;2022-10-12T12:15:51;15.90;99.90
13561;DHT22;6852;51.686;5.314;2022-10-12T12:18:31;15.90;99.90
13561;DHT22;6852;51.686;5.314;2022-10-12T12:21:08;16.00;99.90
13561;DHT22;6852;51.686;5.314;2022-10-12T12:23:54;15.80;99.90
13561;DHT22;6852;51.686;5.314;2022-10-12T12:26:25;15.80;99.90
13561;DHT22;6852;51.686;5.314;2022-10-12T12:29:10;15.70;99.90
13561;DHT22;6852;51.686;5.314;2022-10-12T12:31:41;15.60;99.90
13561;DHT22;6852;51.686;5.314;2022-10-12T12:34:15;15.50;99.90
13561;DHT22;6852;51.686;5.314;2022-10-12T12:36:44;15.60;99.90
13561;DHT22;6852;51.686;5.314;2022-10-12T12:39:31;15.70;99.90
13561;DHT22;6852;51.686;5.314;2022-10-12T12:42:01;16.10;99.90
13561;DHT22;6852;51.686;5.314;2022-10-12T12:50:00;16.10;99.90
13561;DHT22;6852;51.686;5.314;2022-10-12T12:52:37;16.20;99.90
13561;DHT22;6852;51.686;5.314;2022-10-12T12:59:04;16.10;99.90
13561;DHT22;6852;51.686;5.314;2022-10-12T13:06:14;15.90;99.90
13561;DHT22;6852;51.686;5.314;2022-10-12T13:17:49;16.10;72.20
13561;DHT22;6852;51.686;5.314;2022-10-12T13:20:25;16.00;99.90
13561;DHT22;6852;51.686;5.314;2022-10-12T13:22:55;16.00;41.00
13561;DHT22;6852;51.686;5.314;2022-10-12T13:25:39;15.80;90.70
13561;DHT22;6852;51.686;5.314;2022-10-12T13:28:15;15.80;77.40
13561;DHT22;6852;51.686;5.314;2022-10-12T13:31:47;15.70;99.90
13561;DHT22;6852;51.686;5.314;2022-10-12T13:39:24;15.60;99.90
13561;DHT22;6852;51.686;5.314;2022-10-12T13:41:58;15.70;99.90
13561;DHT22;6852;51.686;5.314;2022-10-12T13:44:29;15.60;99.90
13561;DHT22;6852;51.686;5.314;2022-10-12T13:46:57;15.60;97.00
13561;DHT22;6852;51.686;5.314;2022-10-12T13:49:33;15.60;99.90
13561;DHT22;6852;51.686;5.314;2022-10-12T13:54:46;15.50;99.90
13561;DHT22;6852;51.686;5.314;2022-10-12T13:57:43;15.50;99.90
13561;DHT22;6852;51.686;5.314;2022-10-12T14:00:24;15.50;99.90
13561;DHT22;6852;51.686;5.314;2022-10-12T14:02:56;15.80;99.90
13561;DHT22;6852;51.686;5.314;2022-10-12T14:05:25;15.70;99.90
13561;DHT22;6852;51.686;5.314;2022-10-12T14:07:58;15.70;99.90
13561;DHT22;6852;51.686;5.314;2022-10-12T14:10:37;15.80;99.90
13561;DHT22;6852;51.686;5.314;2022-10-12T14:13:04;16.10;99.90
13561;DHT22;6852;51.686;5.314;2022-10-12T14:15:39;16.30;80.70
13561;DHT22;6852;51.686;5.314;2022-10-12T14:21:26;16.40;44.40
13561;DHT22;6852;51.686;5.314;2022-10-12T14:24:08;16.40;36.60
13561;DHT22;6852;51.686;5.314;2022-10-12T14:26:41;16.60;58.20
13561;DHT22;6852;51.686;5.314;2022-10-12T14:29:44;16.80;9.00
13561;DHT22;6852;51.686;5.314;2022-10-12T14:34:49;16.50;15.50
13561;DHT22;6852;51.686;5.314;2022-10-12T14:37:29;16.10;11.40
13561;DHT22;6852;51.686;5.314;2022-10-12T14:39:56;16.00;99.90
13561;DHT22;6852;51.686;5.314;2022-10-12T14:42:34;16.00;99.90
13561;DHT22;6852;51.686;5.314;2022-10-12T14:45:04;15.80;99.90
13561;DHT22;6852;51.686;5.314;2022-10-12T14:47:39;15.90;99.90
13561;DHT22;6852;51.686;5.314;2022-10-12T14:50:08;16.00;99.90
13561;DHT22;6852;51.686;5.314;2022-10-12T14:52:44;16.10;99.90
13561;DHT22;6852;51.686;5.314;2022-10-12T14:55:16;16.00;99.90
13561;DHT22;6852;51.686;5.314;2022-10-12T14:57:43;16.10;99.90
13561;DHT22;6852;51.686;5.314;2022-10-12T15:00:14;15.90;99.90
13561;DHT22;6852;51.686;5.314;2022-10-12T15:02:42;16.00;99.90
13561;DHT22;6852;51.686;5.314;2022-10-12T15:05:15;16.00;99.90
13561;DHT22;6852;51.686;5.314;2022-10-12T15:07:43;15.90;99.90
13561;DHT22;6852;51.686;5.314;2022-10-12T15:10:11;15.90;99.90
13561;DHT22;6852;51.686;5.314;2022-10-12T15:12:38;15.90;99.90
13561;DHT22;6852;51.686;5.314;2022-10-12T15:15:31;15.80;99.90
13561;DHT22;6852;51.686;5.314;2022-10-12T15:17:59;15.70;99.90
13561;DHT22;6852;51.686;5.314;2022-10-12T15:20:28;15.70;1.00
13561;DHT22;6852;51.686;5.314;2022-10-12T15:22:56;15.60;99.90
13561;DHT22;6852;51.686;5.314;2022-10-12T15:25:38;15.60;99.90
13561;DHT22;6852;51.686;5.314;2022-10-12T15:28:07;15.50;99.90
13561;DHT22;6852;51.686;5.314;2022-10-12T15:30:34;15.40;99.90
13561;DHT22;6852;51.686;5.314;2022-10-12T15:33:21;15.40;99.90
13561;DHT22;6852;51.686;5.314;2022-10-12T15:35:49;15.30;99.90
13561;DHT22;6852;51.686;5.314;2022-10-12T15:38:16;15.30;99.90
13561;DHT22;6852;51.686;5.314;2022-10-12T15:40:43;15.40;99.90
13561;DHT22;6852;51.686;5.314;2022-10-12T15:43:11;15.30;99.90
13561;DHT22;6852;51.686;5.314;2022-10-12T15:45:40;15.40;1.00
13561;DHT22;6852;51.686;5.314;2022-10-12T15:48:08;15.40;1.00
13561;DHT22;6852;51.686;5.314;2022-10-12T15:50:39;15.40;1.00
13561;DHT22;6852;51.686;5.314;2022-10-12T15:53:06;15.30;1.00
13561;DHT22;6852;51.686;5.314;2022-10-12T15:55:35;15.30;1.00
13561;DHT22;6852;51.686;5.314;2022-10-12T15:58:02;15.30;1.00
13561;DHT22;6852;51.686;5.314;2022-10-12T16:00:29;15.30;1.00
13561;DHT22;6852;51.686;5.314;2022-10-12T16:02:59;15.30;1.00
13561;DHT22;6852;51.686;5.314;2022-10-12T16:05:28;15.30;1.00
13561;DHT22;6852;51.686;5.314;2022-10-12T16:07:55;15.30;1.00
13561;DHT22;6852;51.686;5.314;2022-10-12T16:10:29;15.30;1.00
13561;DHT22;6852;51.686;5.314;2022-10-12T16:12:58;15.40;1.00
13561;DHT22;6852;51.686;5.314;2022-10-12T16:15:28;15.30;1.00
13561;DHT22;6852;51.686;5.314;2022-10-12T16:18:01;15.30;1.00
13561;DHT22;6852;51.686;5.314;2022-10-12T16:20:30;15.30;1.00
13561;DHT22;6852;51.686;5.314;2022-10-12T16:23:00;15.20;1.00
13561;DHT22;6852;51.686;5.314;2022-10-12T16:25:27;15.20;1.00
13561;DHT22;6852;51.686;5.314;2022-10-12T16:27:56;15.10;1.00
13561;DHT22;6852;51.686;5.314;2022-10-12T16:30:24;15.10;1.00
13561;DHT22;6852;51.686;5.314;2022-10-12T16:32:52;15.10;1.00
13561;DHT22;6852;51.686;5.314;2022-10-12T16:35:19;15.10;1.00
13561;DHT22;6852;51.686;5.314;2022-10-12T16:37:46;15.00;1.00
13561;DHT22;6852;51.686;5.314;2022-10-12T16:40:13;15.00;1.00
13561;DHT22;6852;51.686;5.314;2022-10-12T16:42:40;15.00;1.00
13561;DHT22;6852;51.686;5.314;2022-10-12T16:45:07;14.90;84.40
13561;DHT22;6852;51.686;5.314;2022-10-12T16:47:34;14.90;99.90
13561;DHT22;6852;51.686;5.314;2022-10-12T16:50:08;14.80;99.90
13561;DHT22;6852;51.686;5.314;2022-10-12T16:52:36;14.70;99.90
13561;DHT22;6852;51.686;5.314;2022-10-12T16:55:05;14.70;99.90
13561;DHT22;6852;51.686;5.314;2022-10-12T16:57:31;14.70;99.90
13561;DHT22;6852;51.686;5.314;2022-10-12T16:59:58;14.70;99.90
13561;DHT22;6852;51.686;5.314;2022-10-12T17:02:25;14.70;99.90
13561;DHT22;6852;51.686;5.314;2022-10-12T17:04:55;14.60;99.90
13561;DHT22;6852;51.686;5.314;2022-10-12T17:07:22;14.60;99.90
13561;DHT22;6852;51.686;5.314;2022-10-12T17:09:49;14.50;99.90
13561;DHT22;6852;51.686;5.314;2022-10-12T17:12:17;14.50;99.90
13561;DHT22;6852;51.686;5.314;2022-10-12T17:14:44;14.40;99.90
13561;DHT22;6852;51.686;5.314;2022-10-12T17:17:11;14.40;99.90
13561;DHT22;6852;51.686;5.314;2022-10-12T17:19:40;14.30;1.00
13561;DHT22;6852;51.686;5.314;2022-10-12T17:22:09;14.20;1.00
13561;DHT22;6852;51.686;5.314;2022-10-12T17:24:38;14.10;1.00
13561;DHT22;6852;51.686;5.314;2022-10-12T17:27:07;14.10;1.00
13561;DHT22;6852;51.686;5.314;2022-10-12T17:29:36;14.00;1.00
13561;DHT22;6852;51.686;5.314;2022-10-12T17:32:05;14.00;1.00
13561;DHT22;6852;51.686;5.314;2022-10-12T17:34:35;13.80;1.00
13561;DHT22;6852;51.686;5.314;2022-10-12T17:37:03;13.80;1.00
13561;DHT22;6852;51.686;5.314;2022-10-12T17:39:33;13.70;1.00
13561;DHT22;6852;51.686;5.314;2022-10-12T17:42:01;13.70;1.00
13561;DHT22;6852;51.686;5.314;2022-10-12T17:44:28;13.60;1.00
13561;DHT22;6852;51.686;5.314;2022-10-12T17:46:55;13.50;1.00
13561;DHT22;6852;51.686;5.314;2022-10-12T17:49:24;13.60;1.00
13561;DHT22;6852;51.686;5.314;2022-10-12T17:51:52;13.50;1.00
13561;DHT22;6852;51.686;5.314;2022-10-12T17:54:21;13.40;99.90
13561;DHT22;6852;51.686;5.314;2022-10-12T17:56:48;13.30;99.90
13561;DHT22;6852;51.686;5.314;2022-10-12T17:59:17;13.30;99.90
13561;DHT22;6852;51.686;5.314;2022-10-12T18:01:44;13.30;99.90
13561;DHT22;6852;51.686;5.314;2022-10-12T18:04:12;13.20;1.00
13561;DHT22;6852;51.686;5.314;2022-10-12T18:06:39;13.20;1.00
13561;DHT22;6852;51.686;5.314;2022-10-12T18:09:08;13.20;1.00
13561;DHT22;6852;51.686;5.314;2022-10-12T18:11:35;13.10;1.00
13561;DHT22;6852;51.686;5.314;2022-10-12T18:14:02;13.10;1.00
13561;DHT22;6852;51.686;5.314;2022-10-12T18:16:32;13.10;1.00
13561;DHT22;6852;51.686;5.314;2022-10-12T18:19:00;13.00;1.00
13561;DHT22;6852;51.686;5.314;2022-10-12T18:21:29;13.00;1.00
13561;DHT22;6852;51.686;5.314;2022-10-12T18:23:57;12.90;1.00